Time;durP1;ratioP1;P1;durP2;ratioP2;P2;SDS_P1;SDS_P2;PMS_P1;PMS_P2;Temp;Humidity;BMP_temperature;BMP_pressure;BME280_temperature;BME280_humidity;BME280_pressure;Samples;Min_cycle;Max_cycle;Signal;HPM_P1;HPM_P2
2022/04/05 00:00:15;;;;;;;10.10;7.80;;;;;;;2.38;100.00;95534.72;5032060;28;20498;-73
2022/04/05 00:02:41;;;;;;;9.07;8.13;;;;;;;2.17;100.00;95509.38;5032273;28;20504;-73
2022/04/05 00:05:08;;;;;;;11.83;10.83;;;;;;;2.28;100.00;95523.75;5009576;28;20832;-73
2022/04/05 00:07:35;;;;;;;8.57;7.53;;;;;;;2.43;100.00;95543.53;4995962;28;20857;-73
2022/04/05 00:10:01;;;;;;;13.03;11.30;;;;;;;2.41;100.00;95530.00;4991424;28;20457;-73
2022/04/05 00:12:28;;;;;;;9.27;8.37;;;;;;;2.37;100.00;95535.78;5065961;28;20441;-73
2022/04/05 00:14:55;;;;;;;11.73;10.57;;;;;;;2.30;100.00;95508.59;5048608;28;20522;-73
2022/04/05 00:17:21;;;;;;;12.00;10.80;;;;;;;2.31;100.00;95507.50;5031982;28;20451;-73
2022/04/05 00:19:48;;;;;;;11.80;10.53;;;;;;;2.18;100.00;95495.28;5031901;28;20969;-73
2022/04/05 00:22:15;;;;;;;10.23;8.47;;;;;;;2.33;100.00;95513.97;5033209;28;20430;-73
2022/04/05 00:24:41;;;;;;;12.10;10.90;;;;;;;2.32;100.00;95525.47;5032050;28;20459;-73
2022/04/05 00:27:08;;;;;;;10.63;9.60;;;;;;;2.09;100.00;95474.34;5031739;28;20475;-73
2022/04/05 00:29:35;;;;;;;13.10;11.80;;;;;;;2.08;100.00;95470.19;5031866;28;20518;-74
2022/04/05 00:32:01;;;;;;;12.40;10.80;;;;;;;2.22;100.00;95491.00;5031862;28;20972;-73
2022/04/05 00:34:29;;;;;;;13.10;11.80;;;;;;;2.33;100.00;95503.53;5025133;28;20948;-73
2022/04/05 00:36:56;;;;;;;13.00;11.07;;;;;;;2.31;100.00;95500.47;5058262;28;20443;-73
2022/04/05 00:39:23;;;;;;;12.40;11.10;;;;;;;2.12;100.00;95450.28;5031885;28;20443;-73
2022/04/05 00:41:50;;;;;;;12.70;11.40;;;;;;;1.94;100.00;95425.91;5031455;28;20435;-73
2022/04/05 00:44:16;;;;;;;8.43;7.63;;;;;;;2.29;100.00;95467.94;5030958;28;20438;-73
2022/04/05 00:46:43;;;;;;;8.03;7.20;;;;;;;2.19;100.00;95437.63;5032329;28;20473;-73
2022/04/05 00:49:16;;;;;;;12.70;10.80;;;;;;;2.18;100.00;95435.31;5011123;28;20444;-73
2022/04/05 00:51:43;;;;;;;14.20;11.20;;;;;;;2.24;100.00;95442.72;5013038;28;20486;-73
2022/04/05 00:54:12;;;;;;;9.90;9.00;;;;;;;2.42;100.00;95469.72;5019934;28;20858;-73
2022/04/05 00:56:40;;;;;;;14.07;10.13;;;;;;;2.36;100.00;95476.09;5064275;28;20458;-74
2022/04/05 00:59:09;;;;;;;11.73;9.97;;;;;;;2.19;100.00;95444.66;5022448;28;20453;-74
2022/04/05 01:01:37;;;;;;;10.37;7.83;;;;;;;2.27;100.00;95463.00;5000841;28;20445;-74
2022/04/05 01:04:05;;;;;;;9.80;8.70;;;;;;;2.13;100.00;95438.00;5064261;28;20430;-73
2022/04/05 01:06:39;;;;;;;9.53;8.57;;;;;;;2.29;100.00;95465.31;5016063;28;21015;-73
2022/04/05 01:09:09;;;;;;;10.97;8.33;;;;;;;2.22;100.00;95463.09;5027661;28;20447;-73
2022/04/05 01:11:36;;;;;;;9.53;8.13;;;;;;;2.16;100.00;95446.03;5004875;28;20540;-73
2022/04/05 01:14:04;;;;;;;14.60;12.00;;;;;;;2.22;100.00;95447.47;5015809;28;20469;-73
2022/04/05 01:16:31;;;;;;;12.57;11.27;;;;;;;2.00;100.00;95424.75;5025847;28;20985;-73
2022/04/05 01:18:58;;;;;;;12.47;10.90;;;;;;;2.21;100.00;95445.91;5027478;28;20436;-73
2022/04/05 01:21:27;;;;;;;8.43;7.63;;;;;;;2.13;100.00;95410.09;5029384;28;20438;-73
2022/04/05 01:24:05;;;;;;;8.83;7.97;;;;;;;2.09;100.00;95396.13;5032203;28;20454;-74
2022/04/05 01:26:46;;;;;;;13.23;12.03;;;;;;;2.26;100.00;95429.38;5030821;28;20451;-73
2022/04/05 01:29:15;;;;;;;8.53;7.80;;;;;;;2.16;100.00;95393.13;5030701;28;20522;-74
2022/04/05 01:31:47;;;;;;;10.40;9.40;;;;;;;2.33;100.00;95433.13;5022141;28;20432;-74
2022/04/05 01:34:17;;;;;;;8.50;7.60;;;;;;;2.21;100.00;95412.03;5006370;28;20433;-73
2022/04/05 01:36:52;;;;;;;10.93;9.47;;;;;;;2.21;100.00;95427.66;5016106;28;20512;-73
2022/04/05 01:39:25;;;;;;;13.03;11.73;;;;;;;2.19;100.00;95424.59;5011115;28;20435;-73
2022/04/05 01:41:54;;;;;;;11.63;8.03;;;;;;;2.15;100.00;95415.06;5012849;28;20546;-72
2022/04/05 01:44:22;;;;;;;9.90;8.90;;;;;;;2.10;100.00;95418.53;5006730;28;20999;-73
2022/04/05 01:46:48;;;;;;;9.10;8.20;;;;;;;1.90;100.00;95387.69;5028086;28;20469;-73
2022/04/05 01:49:15;;;;;;;9.87;8.87;;;;;;;2.00;100.00;95405.69;5031448;28;20436;-73
2022/04/05 01:51:44;;;;;;;12.60;10.93;;;;;;;1.83;100.00;95382.09;5029043;28;20435;-73
2022/04/05 01:54:13;;;;;;;11.90;10.70;;;;;;;2.06;100.00;95407.16;5018149;28;20443;-73
2022/04/05 01:56:44;;;;;;;8.63;7.73;;;;;;;1.91;100.00;95384.03;5014703;28;20440;-72
2022/04/05 01:59:12;;;;;;;8.97;8.07;;;;;;;1.96;100.00;95404.75;5021683;28;20601;-73
2022/04/05 02:01:40;;;;;;;11.90;9.00;;;;;;;2.11;100.00;95406.25;5043746;28;20443;-73
2022/04/05 02:04:12;;;;;;;12.13;10.50;;;;;;;2.11;100.00;95406.25;5001176;28;20452;-73
2022/04/05 02:06:40;;;;;;;10.87;9.53;;;;;;;2.12;100.00;95399.97;5021580;28;20502;-73
2022/04/05 02:09:07;;;;;;;11.57;10.37;;;;;;;2.12;100.00;95390.31;5022740;28;20568;-73
2022/04/05 02:11:35;;;;;;;10.43;9.17;;;;;;;2.15;100.00;95394.19;5027929;28;20455;-73
2022/04/05 02:14:14;;;;;;;11.03;10.03;;;;;;;2.17;100.00;95398.03;5028261;28;20422;-73
2022/04/05 02:16:42;;;;;;;14.63;10.70;;;;;;;2.13;100.00;95393.69;5023576;28;20462;-73
2022/04/05 02:19:09;;;;;;;10.10;7.10;;;;;;;1.97;100.00;95373.19;5024087;28;20441;-73
2022/04/05 02:21:39;;;;;;;13.80;11.63;;;;;;;2.08;100.00;95376.34;5023033;28;20449;-73
2022/04/05 02:24:06;;;;;;;12.23;9.83;;;;;;;1.86;100.00;95340.59;5024433;28;20509;-73
2022/04/05 02:26:36;;;;;;;10.30;9.30;;;;;;;2.17;100.00;95398.03;5014130;28;20466;-73
2022/04/05 02:29:06;;;;;;;11.63;10.40;;;;;;;2.19;100.00;95403.72;5013913;28;20842;-73
2022/04/05 02:31:37;;;;;;;12.80;10.80;;;;;;;1.99;100.00;95358.00;5030177;28;20474;-73
2022/04/05 02:34:08;;;;;;;13.80;11.73;;;;;;;2.13;100.00;95391.09;5014752;28;20825;-73
2022/04/05 02:36:40;;;;;;;11.70;9.50;;;;;;;1.93;100.00;95376.69;5054715;28;20451;-73
2022/04/05 02:39:13;;;;;;;9.60;8.60;;;;;;;2.04;100.00;95402.22;5025265;28;20524;-73
2022/04/05 02:41:41;;;;;;;13.30;11.77;;;;;;;1.98;100.00;95403.38;4994744;28;20439;-73
2022/04/05 02:44:08;;;;;;;12.10;10.07;;;;;;;1.75;100.00;95358.31;5023443;28;20449;-73
2022/04/05 02:46:36;;;;;;;12.97;11.53;;;;;;;1.73;100.00;95360.41;5026164;28;20562;-73
2022/04/05 02:49:03;;;;;;;15.40;12.10;;;;;;;1.91;100.00;95384.78;5009996;28;20598;-73
2022/04/05 02:51:33;;;;;;;12.33;9.00;;;;;;;1.78;100.00;95367.34;5043145;28;20474;-73
2022/04/05 02:54:06;;;;;;;14.53;12.30;;;;;;;1.85;100.00;95388.56;5030192;28;21018;-73
2022/04/05 02:56:35;;;;;;;10.30;8.60;;;;;;;1.81;100.00;95392.81;5030027;28;20474;-73
2022/04/05 02:59:02;;;;;;;14.43;9.23;;;;;;;1.74;100.00;95385.41;5005749;28;20543;-73
2022/04/05 03:01:29;;;;;;;14.20;11.00;;;;;;;1.65;100.00;95381.19;4998960;28;20473;-73
2022/04/05 03:04:06;;;;;;;16.77;11.50;;;;;;;1.68;100.00;95398.81;5029819;28;20538;-72
2022/04/05 03:06:34;;;;;;;12.77;9.80;;;;;;;1.42;100.00;95365.47;5031791;28;20507;-72
2022/04/05 03:09:01;;;;;;;13.90;11.37;;;;;;;1.59;100.00;95401.34;5050810;28;20858;-72
2022/04/05 03:11:30;;;;;;;13.73;11.77;;;;;;;1.49;100.00;95380.72;5033681;28;20459;-72
2022/04/05 03:13:57;;;;;;;18.43;12.10;;;;;;;1.69;100.00;95398.53;5033409;28;20455;-73
2022/04/05 03:16:24;;;;;;;15.30;12.03;;;;;;;1.46;100.00;95356.03;5029112;28;20470;-73
2022/04/05 03:18:53;;;;;;;14.90;11.60;;;;;;;1.48;100.00;95376.59;5024638;28;20535;-73
2022/04/05 03:21:21;;;;;;;13.40;11.93;;;;;;;1.37;100.00;95364.81;5008273;28;20490;-73
2022/04/05 03:23:48;;;;;;;12.47;11.33;;;;;;;1.45;100.00;95390.16;4997054;28;20467;-73
2022/04/05 03:26:15;;;;;;;13.57;12.00;;;;;;;1.32;100.00;95370.13;5002216;28;20460;-73
2022/04/05 03:28:43;;;;;;;15.30;12.47;;;;;;;1.42;100.00;95388.16;5036623;28;20466;-73
2022/04/05 03:31:10;;;;;;;15.43;12.40;;;;;;;1.30;100.00;95372.25;5014274;28;20432;-73
2022/04/05 03:33:37;;;;;;;12.73;10.07;;;;;;;1.45;100.00;95393.53;5025521;28;20590;-73
2022/04/05 03:36:07;;;;;;;14.00;12.30;;;;;;;1.36;100.00;95386.72;5000060;28;20465;-73
2022/04/05 03:38:33;;;;;;;13.40;11.90;;;;;;;1.28;100.00;95384.78;4996851;28;20846;-72
2022/04/05 03:41:00;;;;;;;13.43;12.23;;;;;;;1.31;100.00;95386.81;5032874;28;20435;-72
2022/04/05 03:43:28;;;;;;;14.97;11.90;;;;;;;1.20;100.00;95378.41;5032390;28;20467;-72
2022/04/05 03:45:56;;;;;;;30.90;22.50;;;;;;;1.06;100.00;95368.00;5033763;28;20463;-73
2022/04/05 03:48:26;;;;;;;17.33;14.27;;;;;;;1.13;100.00;95360.59;5032482;28;20482;-73
2022/04/05 03:50:55;;;;;;;18.80;13.70;;;;;;;1.15;100.00;95375.91;5032591;28;20438;-73
2022/04/05 03:53:22;;;;;;;17.07;14.47;;;;;;;1.17;100.00;95392.78;5032299;28;20463;-73
2022/04/05 03:55:49;;;;;;;18.10;11.80;;;;;;;0.99;100.00;95366.84;5032542;28;20548;-73
2022/04/05 03:58:16;;;;;;;11.63;10.60;;;;;;;0.95;100.00;95366.66;5019001;28;20467;-73
2022/04/05 04:00:44;;;;;;;13.80;11.93;;;;;;;1.10;100.00;95384.59;5032330;28;20446;-73
2022/04/05 04:03:18;;;;;;;13.47;12.07;;;;;;;0.97;100.00;95376.78;5032480;28;20435;-73
2022/04/05 04:05:47;;;;;;;16.43;13.57;;;;;;;0.28;100.00;95270.84;5034749;28;20572;-73
2022/04/05 04:08:14;;;;;;;16.20;12.97;;;;;;;0.92;100.00;95358.66;5032078;28;20954;-73
2022/04/05 04:10:43;;;;;;;11.80;10.60;;;;;;;1.09;100.00;95390.88;5032551;28;20444;-74
2022/04/05 04:13:10;;;;;;;17.20;14.40;;;;;;;1.08;100.00;95398.97;5032043;28;20438;-73
2022/04/05 04:15:41;;;;;;;14.50;11.43;;;;;;;0.94;100.00;95378.13;5032144;28;20899;-73
2022/04/05 04:18:08;;;;;;;12.00;10.70;;;;;;;0.86;100.00;95365.78;5031373;28;21183;-73
2022/04/05 04:20:42;;;;;;;13.87;12.43;;;;;;;1.01;100.00;95393.34;5032214;28;20876;-73
2022/04/05 04:23:11;;;;;;;14.27;12.77;;;;;;;0.83;100.00;95374.94;5032221;28;21004;-73
2022/04/05 04:25:45;;;;;;;14.57;13.17;;;;;;;1.06;100.00;95403.66;5016716;28;20463;-73
2022/04/05 04:28:13;;;;;;;15.03;13.47;;;;;;;1.08;100.00;95401.56;5033322;28;20495;-73
2022/04/05 04:30:40;;;;;;;14.87;12.43;;;;;;;1.12;100.00;95403.28;5031282;28;21007;-74
2022/04/05 04:33:08;;;;;;;16.03;14.43;;;;;;;0.96;100.00;95381.22;5011770;28;20440;-74
2022/04/05 04:35:38;;;;;;;12.63;11.43;;;;;;;1.12;100.00;95403.28;5011859;28;20447;-73
2022/04/05 04:38:07;;;;;;;13.90;12.10;;;;;;;1.02;100.00;95392.28;5022632;28;20498;-73
2022/04/05 04:40:34;;;;;;;12.40;10.57;;;;;;;1.12;100.00;95382.47;5032893;28;20489;-73
2022/04/05 04:43:02;;;;;;;13.00;11.37;;;;;;;1.22;100.00;95386.72;5031543;28;20469;-73
2022/04/05 04:45:29;;;;;;;13.27;11.80;;;;;;;1.17;100.00;95389.41;5032775;28;20459;-74
2022/04/05 04:47:55;;;;;;;12.23;10.97;;;;;;;1.11;100.00;95367.91;5031908;28;20547;-74
2022/04/05 04:50:22;;;;;;;12.97;11.70;;;;;;;1.14;100.00;95366.56;4998445;28;20955;-74
2022/04/05 04:52:49;;;;;;;13.90;11.90;;;;;;;1.34;100.00;95384.41;5022110;28;20478;-74
2022/04/05 04:55:16;;;;;;;13.70;11.57;;;;;;;1.18;100.00;95363.09;5018794;28;20443;-74
2022/04/05 04:57:42;;;;;;;14.07;11.77;;;;;;;1.38;100.00;95390.56;5032060;28;21101;-74
2022/04/05 05:00:11;;;;;;;12.33;10.50;;;;;;;1.35;100.00;95372.16;5064563;28;20455;-73
2022/04/05 05:02:44;;;;;;;13.70;11.10;;;;;;;1.37;100.00;95375.25;5020873;28;20476;-73
2022/04/05 05:05:12;;;;;;;11.60;10.43;;;;;;;1.50;100.00;95392.69;5011691;28;20475;-73
2022/04/05 05:07:40;;;;;;;13.40;11.37;;;;;;;1.57;100.00;95410.50;5028174;28;20523;-73
2022/04/05 05:10:07;;;;;;;12.23;10.90;;;;;;;1.56;100.00;95406.38;5025085;28;20494;-73
2022/04/05 05:12:34;;;;;;;16.00;12.70;;;;;;;1.44;100.00;95383.41;5024292;28;20430;-73
2022/04/05 05:15:02;;;;;;;12.80;11.53;;;;;;;1.41;100.00;95382.16;5025680;28;20423;-74
2022/04/05 05:17:33;;;;;;;11.90;10.67;;;;;;;1.19;100.00;95343.03;5023974;28;20497;-74
2022/04/05 05:19:59;;;;;;;13.33;9.10;;;;;;;1.46;100.00;95378.69;5015033;28;20467;-73
2022/04/05 05:22:26;;;;;;;12.10;10.40;;;;;;;1.68;100.00;95411.84;5001825;28;20543;-74
2022/04/05 05:24:53;;;;;;;12.90;10.50;;;;;;;1.51;100.00;95373.38;5019409;28;20427;-75
2022/04/05 05:27:19;;;;;;;13.93;12.60;;;;;;;1.48;100.00;95384.41;5031795;28;20459;-74
2022/04/05 05:29:46;;;;;;;13.60;11.50;;;;;;;1.68;100.00;95410.03;5024703;28;20477;-75
2022/04/05 05:32:13;;;;;;;14.17;12.67;;;;;;;1.76;100.00;95413.78;5011294;28;20440;-75
2022/04/05 05:34:40;;;;;;;12.83;11.00;;;;;;;1.87;100.00;95409.91;5001240;28;20422;-74
2022/04/05 05:37:11;;;;;;;13.80;12.33;;;;;;;1.40;100.00;95338.19;4999068;28;20462;-74
2022/04/05 05:39:37;;;;;;;14.17;12.70;;;;;;;1.83;100.00;95402.94;5012689;28;20463;-75
2022/04/05 05:42:05;;;;;;;14.10;10.27;;;;;;;1.83;100.00;95400.34;5011998;28;20528;-75
2022/04/05 05:44:33;;;;;;;13.10;11.87;;;;;;;2.00;100.00;95429.16;5020794;28;20523;-74
2022/04/05 05:47:01;;;;;;;14.77;11.03;;;;;;;2.01;100.00;95425.50;5015222;28;20984;-74
2022/04/05 05:49:28;;;;;;;12.10;10.80;;;;;;;1.96;100.00;95430.81;5004669;28;20549;-74
2022/04/05 05:51:55;;;;;;;12.27;11.17;;;;;;;1.71;100.00;95400.84;5015215;28;20951;-74
2022/04/05 05:54:25;;;;;;;14.83;13.40;;;;;;;1.89;100.00;95425.25;5027855;28;20449;-74
2022/04/05 05:56:52;;;;;;;9.30;8.27;;;;;;;1.72;100.00;95403.16;4997929;28;20461;-75
2022/04/05 05:59:19;;;;;;;14.43;9.50;;;;;;;1.77;100.00;95407.50;5027196;28;20435;-75
2022/04/05 06:01:45;;;;;;;13.60;10.87;;;;;;;1.79;100.00;95415.81;4993924;28;20441;-74
2022/04/05 06:04:14;;;;;;;11.03;9.40;;;;;;;1.98;100.00;95437.28;5003255;28;20492;-76
2022/04/05 06:06:40;;;;;;;15.00;12.20;;;;;;;1.25;100.00;95317.69;5057397;28;20526;-76
2022/04/05 06:09:07;;;;;;;12.17;10.87;;;;;;;1.80;100.00;95403.53;5054631;28;20472;-75
2022/04/05 06:11:33;;;;;;;12.47;11.23;;;;;;;1.80;100.00;95404.31;5013223;28;20539;-76
2022/04/05 06:14:00;;;;;;;11.97;10.80;;;;;;;1.98;100.00;95424.25;5019430;28;20538;-74
2022/04/05 06:16:27;;;;;;;13.03;11.73;;;;;;;1.75;100.00;95394.78;5043770;28;20473;-75
2022/04/05 06:18:59;;;;;;;10.80;9.60;;;;;;;2.15;100.00;95448.94;5023704;28;20423;-74
2022/04/05 06:21:26;;;;;;;11.63;10.47;;;;;;;1.99;100.00;95423.19;5008561;28;20444;-74
2022/04/05 06:23:53;;;;;;;12.33;10.30;;;;;;;2.03;100.00;95429.38;5010720;28;20455;-74
2022/04/05 06:26:21;;;;;;;13.37;12.07;;;;;;;2.10;100.00;95443.81;5025132;28;20463;-74
2022/04/05 06:28:48;;;;;;;11.73;9.90;;;;;;;2.11;100.00;95448.72;5023211;28;20474;-75
2022/04/05 06:31:14;;;;;;;13.57;11.83;;;;;;;2.18;100.00;95464.75;5017235;28;20519;-73
2022/04/05 06:33:41;;;;;;;11.70;10.60;;;;;;;2.14;100.00;95463.00;5030435;28;20439;-73
2022/04/05 06:36:08;;;;;;;15.60;11.27;;;;;;;2.20;100.00;95470.44;5018426;28;21055;-73
2022/04/05 06:38:34;;;;;;;11.40;10.30;;;;;;;2.04;100.00;95443.16;5029746;28;20429;-74
2022/04/05 06:41:07;;;;;;;16.37;13.63;;;;;;;2.23;100.00;95476.91;5050967;28;20914;-74
2022/04/05 06:43:34;;;;;;;16.30;13.03;;;;;;;2.26;100.00;95473.72;5033698;28;20521;-73
2022/04/05 06:46:00;;;;;;;17.83;15.50;;;;;;;2.03;100.00;95431.19;5034090;28;20980;-74
2022/04/05 06:48:27;;;;;;;15.67;14.07;;;;;;;1.98;100.00;95439.88;5018909;28;21022;-73
2022/04/05 06:50:54;;;;;;;18.07;14.83;;;;;;;2.19;100.00;95455.88;5022694;28;20498;-73
2022/04/05 06:53:22;;;;;;;12.60;10.87;;;;;;;2.32;100.00;95483.75;5034046;28;20470;-73
2022/04/05 06:55:49;;;;;;;12.87;11.23;;;;;;;2.14;100.00;95447.38;5026082;28;20832;-73
2022/04/05 06:58:16;;;;;;;13.47;11.60;;;;;;;2.32;100.00;95473.31;5026613;28;20470;-73
2022/04/05 07:00:42;;;;;;;10.70;9.60;;;;;;;2.35;100.00;95464.91;5033690;28;20467;-72
2022/04/05 07:03:09;;;;;;;15.77;14.10;;;;;;;2.35;100.00;95474.56;5033364;28;20505;-73
2022/04/05 07:05:36;;;;;;;11.67;10.40;;;;;;;2.27;100.00;95467.44;5007614;28;20492;-72
2022/04/05 07:08:03;;;;;;;12.27;10.97;;;;;;;2.08;100.00;95424.03;5013603;28;20900;-72
2022/04/05 07:10:30;;;;;;;13.00;11.33;;;;;;;2.36;100.00;95482.09;5015397;28;21027;-73
2022/04/05 07:12:56;;;;;;;14.67;10.73;;;;;;;2.42;100.00;95482.75;5029445;28;20537;-74
2022/04/05 07:15:23;;;;;;;11.60;10.50;;;;;;;2.26;100.00;95453.63;5034421;28;20770;-74
2022/04/05 07:17:50;;;;;;;12.63;9.97;;;;;;;2.49;100.00;95488.31;5032840;28;20493;-73
2022/04/05 07:20:34;;;;;;;9.23;8.33;;;;;;;2.48;100.00;95494.63;5047597;28;20518;-73
2022/04/05 07:23:01;;;;;;;10.93;9.77;;;;;;;2.37;100.00;95478.41;5016794;28;20490;-74
2022/04/05 07:25:28;;;;;;;10.77;9.33;;;;;;;2.31;100.00;95471.78;5016970;28;20877;-74
2022/04/05 07:27:54;;;;;;;12.30;9.40;;;;;;;2.27;100.00;95464.81;5019566;28;20435;-74
2022/04/05 07:30:22;;;;;;;8.33;7.63;;;;;;;2.44;100.00;95498.13;5020909;28;20466;-75
2022/04/05 07:32:48;;;;;;;11.57;10.50;;;;;;;2.31;100.00;95474.38;5016351;28;20448;-74
2022/04/05 07:35:17;;;;;;;11.83;10.53;;;;;;;2.50;100.00;95507.34;5012958;28;20540;-74
2022/04/05 07:37:44;;;;;;;11.20;9.37;;;;;;;2.36;100.00;95471.66;5019671;28;20430;-74
2022/04/05 07:40:12;;;;;;;9.37;8.40;;;;;;;2.51;100.00;95509.66;5049255;28;20513;-74
2022/04/05 07:42:40;;;;;;;12.30;9.83;;;;;;;2.52;100.00;95502.63;5019836;28;20438;-74
2022/04/05 07:45:08;;;;;;;10.77;9.33;;;;;;;2.56;100.00;95506.19;5016316;28;20449;-74
2022/04/05 07:47:36;;;;;;;11.47;10.23;;;;;;;2.55;100.00;95494.22;5025212;28;20473;-75
2022/04/05 07:50:05;;;;;;;9.77;8.77;;;;;;;2.50;100.00;95497.69;5013970;28;20494;-75
2022/04/05 07:52:32;;;;;;;11.47;10.27;;;;;;;2.53;100.00;95504.94;5013060;28;20924;-74
2022/04/05 07:54:59;;;;;;;10.00;9.00;;;;;;;2.42;100.00;95480.16;5027385;28;20463;-75
2022/04/05 07:57:25;;;;;;;8.40;7.40;;;;;;;2.62;100.00;95512.84;5032781;28;20460;-75
2022/04/05 07:59:52;;;;;;;8.37;7.30;;;;;;;2.32;100.00;95480.38;5003549;28;20443;-74
2022/04/05 08:02:19;;;;;;;10.23;9.10;;;;;;;2.58;100.00;95507.44;5034833;28;20521;-75
2022/04/05 08:04:56;;;;;;;13.00;9.10;;;;;;;2.41;100.00;95486.44;5033426;28;20436;-74
2022/04/05 08:07:22;;;;;;;9.43;8.23;;;;;;;2.54;100.00;95521.38;5016995;28;20491;-74
2022/04/05 08:09:49;;;;;;;10.43;8.60;;;;;;;2.37;100.00;95488.06;5032962;28;20540;-74
2022/04/05 08:12:16;;;;;;;10.57;9.67;;;;;;;2.36;100.00;95489.91;5038173;28;20468;-74
2022/04/05 08:14:42;;;;;;;9.90;8.77;;;;;;;2.42;100.00;95495.81;5056125;28;20441;-74
2022/04/05 08:17:09;;;;;;;7.57;6.87;;;;;;;2.49;100.00;95513.66;5029279;28;21039;-74
2022/04/05 08:19:36;;;;;;;8.37;7.43;;;;;;;2.45;100.00;95510.88;5029201;28;20470;-74
2022/04/05 08:22:03;;;;;;;10.20;8.27;;;;;;;2.49;100.00;95511.03;5021617;28;20447;-75
2022/04/05 08:24:30;;;;;;;9.47;8.30;;;;;;;2.59;100.00;95521.25;5013435;28;20431;-74
2022/04/05 08:26:57;;;;;;;9.10;8.30;;;;;;;2.33;100.00;95498.31;5012259;28;20495;-74
2022/04/05 08:29:24;;;;;;;10.30;6.80;;;;;;;2.61;100.00;95532.16;5024148;28;20469;-73
2022/04/05 08:31:50;;;;;;;8.80;6.67;;;;;;;2.48;100.00;95510.25;5030208;28;20443;-74
2022/04/05 08:34:18;;;;;;;7.67;5.60;;;;;;;2.43;100.00;95507.00;5014085;28;20824;-74
2022/04/05 08:36:45;;;;;;;7.37;6.70;;;;;;;2.56;100.00;95532.28;5025105;28;20975;-74
2022/04/05 08:39:11;;;;;;;8.23;7.33;;;;;;;2.60;100.00;95534.00;5002473;28;20444;-74
2022/04/05 08:41:39;;;;;;;7.40;6.70;;;;;;;2.54;100.00;95524.00;5019569;28;20443;-74
2022/04/05 08:44:07;;;;;;;8.40;7.27;;;;;;;2.71;100.00;95549.44;5015568;28;20432;-74
2022/04/05 08:46:34;;;;;;;7.77;7.17;;;;;;;2.71;100.00;95546.84;5024373;28;20521;-75
2022/04/05 08:49:02;;;;;;;6.57;5.57;;;;;;;2.64;100.00;95547.22;5019950;28;20919;-75
2022/04/05 08:51:30;;;;;;;6.07;5.47;;;;;;;2.60;100.00;95551.50;5001977;28;20432;-75
2022/04/05 08:53:57;;;;;;;5.80;5.30;;;;;;;2.41;100.00;95517.75;4998605;28;20479;-75
2022/04/05 08:56:27;;;;;;;5.90;5.30;;;;;;;2.66;100.00;95555.53;5024654;28;20554;-75
2022/04/05 08:58:54;;;;;;;7.03;6.30;;;;;;;2.42;100.00;95521.88;5031721;28;20511;-75
2022/04/05 09:01:21;;;;;;;6.73;6.13;;;;;;;2.49;100.00;95524.84;5014945;28;20849;-75
2022/04/05 09:03:48;;;;;;;7.03;6.33;;;;;;;2.71;100.00;95559.88;5024935;28;20527;-75
2022/04/05 09:06:32;;;;;;;6.53;6.03;;;;;;;2.76;100.00;95565.75;5026283;28;20451;-75
2022/04/05 09:09:09;;;;;;;8.30;6.93;;;;;;;2.63;100.00;95541.25;5017885;28;20460;-75
2022/04/05 09:11:43;;;;;;;7.53;6.77;;;;;;;2.69;100.00;95557.56;5023560;28;20460;-75
2022/04/05 09:14:10;;;;;;;6.83;6.23;;;;;;;2.72;100.00;95569.25;5012909;28;20457;-74
2022/04/05 09:16:37;;;;;;;5.80;5.30;;;;;;;2.74;100.00;95561.91;5017381;28;20567;-74
2022/04/05 09:19:13;;;;;;;6.30;5.73;;;;;;;2.72;100.00;95567.41;5031078;28;20453;-74
2022/04/05 09:21:49;;;;;;;6.10;5.50;;;;;;;2.74;100.00;95565.28;5024847;28;20419;-74
2022/04/05 09:24:16;;;;;;;7.50;6.80;;;;;;;2.60;100.00;95543.66;5026849;28;20450;-74
2022/04/05 09:26:43;;;;;;;7.03;6.33;;;;;;;2.74;100.00;95564.50;5039152;28;20459;-75
2022/04/05 09:29:11;;;;;;;8.77;6.23;;;;;;;2.80;100.00;95574.53;5030191;28;20901;-75
2022/04/05 09:31:50;;;;;;;7.53;6.83;;;;;;;2.84;100.00;95579.94;5031893;28;20804;-75
2022/04/05 09:34:21;;;;;;;6.30;5.40;;;;;;;2.61;100.00;95529.56;5008918;28;20512;-75
2022/04/05 09:36:50;;;;;;;11.53;6.30;;;;;;;2.79;100.00;95557.31;5020854;28;20475;-75
2022/04/05 09:39:17;;;;;;;6.30;5.70;;;;;;;2.90;100.00;95574.31;5032586;28;20417;-74
2022/04/05 09:42:05;;;;;;;7.03;6.47;;;;;;;2.78;100.00;95550.56;5020860;28;20429;-76
2022/04/05 09:44:37;;;;;;;7.83;7.13;;;;;;;2.77;100.00;95537.81;5000030;28;20956;-75
2022/04/05 09:47:07;;;;;;;6.50;5.90;;;;;;;2.97;100.00;95577.28;5013637;28;20505;-75
2022/04/05 09:49:37;;;;;;;8.47;7.63;;;;;;;2.89;100.00;95553.72;5021574;28;20552;-75
2022/04/05 09:52:22;;;;;;;6.00;5.30;;;;;;;3.04;100.00;95576.88;5027937;28;20541;-74
2022/04/05 09:54:49;;;;;;;3.97;3.67;;;;;;;2.90;100.00;95556.03;5050296;28;20852;-74
2022/04/05 09:57:30;;;;;;;6.57;5.97;;;;;;;3.08;100.00;95579.69;5030444;28;20510;-74
2022/04/05 10:00:07;;;;;;;6.50;5.90;;;;;;;3.11;100.00;95571.25;5063835;28;20533;-74
2022/04/05 10:03:04;;;;;;;7.27;6.60;;;;;;;3.20;100.00;95569.44;5031890;28;20429;-74
2022/04/05 10:05:33;;;;;;;6.10;5.50;;;;;;;3.17;100.00;95572.66;5024156;28;20475;-74
2022/04/05 10:08:01;;;;;;;8.20;7.10;;;;;;;3.10;100.00;95554.03;5012539;28;20571;-74
2022/04/05 10:10:28;;;;;;;6.63;6.13;;;;;;;3.22;100.00;95573.31;5031748;28;20489;-74
2022/04/05 10:12:55;;;;;;;7.40;6.70;;;;;;;3.05;100.00;95534.03;5030476;28;20470;-74
2022/04/05 10:15:23;;;;;;;15.70;14.10;;;;;;;2.85;100.00;95501.34;5021682;28;20530;-74
2022/04/05 10:17:52;;;;;;;4.73;4.23;;;;;;;3.11;100.00;95527.63;5030395;28;20431;-74
2022/04/05 10:20:20;;;;;;;6.03;5.50;;;;;;;3.06;100.00;95537.41;5036818;28;20430;-74
2022/04/05 10:22:53;;;;;;;5.27;4.77;;;;;;;3.38;100.00;95555.44;5034441;28;20579;-74
2022/04/05 10:25:24;;;;;;;6.60;5.60;;;;;;;3.41;100.00;95547.00;5035697;28;20462;-74
2022/04/05 10:27:51;;;;;;;5.00;4.60;;;;;;;3.47;100.00;95553.66;5018395;28;20439;-75
2022/04/05 10:30:24;;;;;;;6.67;5.97;;;;;;;3.40;100.00;95540.25;5024021;28;20470;-75
2022/04/05 10:33:07;;;;;;;5.40;4.90;;;;;;;3.52;100.00;95553.53;5020433;28;20458;-74
2022/04/05 10:35:41;;;;;;;6.83;6.23;;;;;;;3.45;100.00;95545.31;5022140;28;20511;-75
2022/04/05 10:38:18;;;;;;;7.20;6.50;;;;;;;3.59;100.00;95554.91;5025316;28;20424;-74
2022/04/05 10:41:19;;;;;;;6.63;4.90;;;;;;;3.58;100.00;95548.94;5045179;28;20962;-75
2022/04/05 10:44:08;;;;;;;4.17;3.80;;;;;;;3.61;100.00;95558.81;5030758;28;20863;-75
2022/04/05 10:46:40;;;;;;;5.77;5.27;;;;;;;3.67;100.00;95565.44;5027935;28;20492;-75
2022/04/05 10:49:44;;;;;;;7.80;5.20;;;;;;;3.73;100.00;95561.59;5034379;28;20573;-75
2022/04/05 10:52:19;;;;;;;7.33;6.70;;;;;;;3.70;100.00;95550.97;5012149;28;20468;-75
2022/04/05 10:54:51;;;;;;;5.80;5.20;;;;;;;3.68;100.00;95547.91;5028336;28;20433;-75
2022/04/05 10:57:38;;;;;;;5.90;5.37;;;;;;;3.63;100.00;95548.81;5068216;28;20458;-75
2022/04/05 11:00:11;;;;;;;5.73;4.77;;;;;;;3.62;100.00;95552.50;5033178;28;20428;-75
2022/04/05 11:02:44;;;;;;;10.97;5.77;;;;;;;3.64;100.00;95552.19;5023013;28;20452;-75
2022/04/05 11:05:14;;;;;;;6.90;6.30;;;;;;;3.67;100.00;95562.03;5015115;28;20433;-75
2022/04/05 11:07:59;;;;;;;4.57;4.20;;;;;;;3.63;100.00;95561.88;4998449;28;20956;-75
2022/04/05 11:10:36;;;;;;;6.90;6.20;;;;;;;3.50;100.00;95534.75;5027212;28;20535;-74
2022/04/05 11:13:14;;;;;;;7.50;6.63;;;;;;;3.71;100.00;95560.38;5025824;28;20428;-75
2022/04/05 11:15:53;;;;;;;8.67;7.87;;;;;;;3.65;100.00;95541.44;5026807;28;20513;-76
2022/04/05 11:18:22;;;;;;;6.80;6.10;;;;;;;3.76;100.00;95557.63;5007988;28;20423;-76
2022/04/05 11:20:52;;;;;;;6.80;5.77;;;;;;;3.54;100.00;95524.47;5020472;28;20472;-76
2022/04/05 11:23:36;;;;;;;6.57;5.97;;;;;;;3.79;100.00;95562.25;5022752;28;20484;-75
2022/04/05 11:26:33;;;;;;;6.80;6.07;;;;;;;3.83;100.00;95557.97;5033938;28;20548;-75
2022/04/05 11:29:03;;;;;;;8.97;8.17;;;;;;;3.84;100.00;95549.03;5034821;28;20439;-75
2022/04/05 11:31:34;;;;;;;9.97;7.90;;;;;;;3.88;100.00;95564.91;5025343;28;20493;-75
2022/04/05 11:34:03;;;;;;;6.53;5.93;;;;;;;3.62;100.00;95523.75;5047062;28;20440;-75